createdAt,value
2022-10-01T00:00:27.384Z,92.86
2022-10-01T00:01:30.307Z,92.42
2022-10-01T00:02:31.815Z,92.28
2022-10-01T00:03:35.715Z,92.26
2022-10-01T00:04:37.562Z,92.14
2022-10-01T00:05:39.113Z,92.31
2022-10-01T00:06:40.628Z,93.00
2022-10-01T00:07:44.214Z,92.96
2022-10-01T00:08:47.419Z,93.05
2022-10-01T00:09:48.841Z,92.24
2022-10-01T00:10:50.251Z,92.41
2022-10-01T00:11:51.722Z,92.16
2022-10-01T00:12:53.210Z,91.85
2022-10-01T00:13:54.862Z,91.99
2022-10-01T00:14:56.350Z,91.86
2022-10-01T00:15:57.814Z,90.76
2022-10-01T00:17:00.618Z,90.61
2022-10-01T00:18:02.078Z,91.04
2022-10-01T00:19:03.655Z,90.57
2022-10-01T00:20:13.999Z,90.48
2022-10-01T00:21:18.087Z,90.19
2022-10-01T00:22:19.706Z,90.01
2022-10-01T00:23:21.156Z,90.07
2022-10-01T00:24:22.590Z,89.92
2022-10-01T00:25:24.009Z,89.74
2022-10-01T00:26:27.759Z,89.89
2022-10-01T00:27:29.774Z,89.33
2022-10-01T00:28:31.244Z,89.41
2022-10-01T00:29:32.842Z,89.94
2022-10-01T00:30:38.376Z,89.15
2022-10-01T00:31:42.137Z,89.41
2022-10-01T00:32:44.955Z,89.61
2022-10-01T00:33:46.457Z,89.30
2022-10-01T00:34:48.198Z,89.47
2022-10-01T00:35:49.632Z,89.73
2022-10-01T00:36:51.078Z,89.44
2022-10-01T00:37:52.550Z,89.31
2022-10-01T00:38:54.017Z,89.03
2022-10-01T00:39:55.505Z,89.46
2022-10-01T00:40:56.945Z,88.78
2022-10-01T00:41:58.436Z,89.07
2022-10-01T00:42:59.859Z,88.87
2022-10-01T00:44:22.821Z,88.62
2022-10-01T00:45:24.278Z,88.52
2022-10-01T00:46:29.310Z,88.46
2022-10-01T00:47:35.320Z,88.45
2022-10-01T00:48:47.635Z,89.87
2022-10-01T00:49:55.462Z,89.23
2022-10-01T00:51:00.759Z,89.36
2022-10-01T00:52:06.113Z,89.09
2022-10-01T00:53:11.340Z,88.88
2022-10-01T00:54:17.013Z,88.54
2022-10-01T00:55:23.390Z,88.67
2022-10-01T00:56:25.260Z,89.18
2022-10-01T00:57:27.510Z,89.72
2022-10-01T00:58:28.957Z,90.62
2022-10-01T00:59:31.570Z,90.53
2022-10-01T01:00:33.254Z,90.39
2022-10-01T01:01:37.125Z,90.91
2022-10-01T01:02:38.917Z,90.35
2022-10-01T01:03:41.736Z,89.60
2022-10-01T01:04:43.220Z,89.05
2022-10-01T01:05:44.667Z,88.89
2022-10-01T01:06:49.562Z,88.59
2022-10-01T01:07:53.299Z,88.70
2022-10-01T01:08:55.896Z,89.00
2022-10-01T01:09:57.859Z,89.02
2022-10-01T01:11:07.608Z,89.47
2022-10-01T01:12:21.713Z,89.54
2022-10-01T01:13:31.600Z,89.90
2022-10-01T01:14:40.487Z,89.88
2022-10-01T01:15:47.583Z,89.74
2022-10-01T01:16:54.145Z,89.75
2022-10-01T01:18:01.657Z,89.85
2022-10-01T01:19:16.090Z,89.64
2022-10-01T01:20:32.248Z,89.40
2022-10-01T01:21:37.105Z,89.51
2022-10-01T01:22:47.167Z,89.69
2022-10-01T01:24:20.988Z,89.35
2022-10-01T01:25:29.717Z,89.80
2022-10-01T01:26:41.541Z,90.12
2022-10-01T01:27:49.496Z,90.04
2022-10-01T01:28:57.636Z,90.37
2022-10-01T01:30:03.720Z,90.67
2022-10-01T01:31:10.789Z,90.02
2022-10-01T01:32:17.862Z,90.56
2022-10-01T01:33:22.762Z,90.50
2022-10-01T01:34:29.151Z,90.68
2022-10-01T01:35:34.736Z,90.64
2022-10-01T01:36:37.190Z,90.39
2022-10-01T01:37:52.286Z,89.94
2022-10-01T01:38:57.877Z,90.17
2022-10-01T01:40:01.648Z,90.36
2022-10-01T01:41:05.703Z,90.23
2022-10-01T01:42:20.689Z,90.40
2022-10-01T01:43:26.703Z,90.47
2022-10-01T01:44:34.948Z,90.44
2022-10-01T01:45:39.601Z,90.51
2022-10-01T01:46:46.158Z,90.15
2022-10-01T01:47:48.681Z,92.00
2022-10-01T01:48:52.420Z,91.37
2022-10-01T01:49:53.949Z,91.87
2022-10-01T01:51:01.971Z,92.42
2022-10-01T01:52:07.924Z,92.40
2022-10-01T01:53:09.526Z,92.02
2022-10-01T01:54:11.171Z,91.47
2022-10-01T01:55:13.184Z,92.74
2022-10-01T01:56:14.725Z,93.09
2022-10-01T01:57:18.702Z,92.49
2022-10-01T01:58:20.500Z,92.55
2022-10-01T01:59:22.106Z,92.78
2022-10-01T02:00:24.991Z,92.98
2022-10-01T02:01:37.569Z,92.87
2022-10-01T02:02:44.167Z,93.23
2022-10-01T02:03:45.695Z,93.66
2022-10-01T02:04:50.253Z,94.35
2022-10-01T02:06:10.160Z,94.01
2022-10-01T02:07:54.470Z,93.85
2022-10-01T02:09:07.686Z,93.74
2022-10-01T02:10:18.613Z,94.07
2022-10-01T02:11:26.389Z,94.14
2022-10-01T02:12:40.091Z,94.00
2022-10-01T02:13:51.403Z,93.59
2022-10-01T02:14:56.326Z,93.68
2022-10-01T02:16:11.316Z,93.25
2022-10-01T02:17:16.537Z,93.28
2022-10-01T02:18:25.512Z,92.21
2022-10-01T02:19:33.142Z,92.83
2022-10-01T02:20:38.639Z,91.79
2022-10-01T02:21:41.698Z,92.29
2022-10-01T02:22:50.030Z,91.28
2022-10-01T02:23:56.395Z,90.94
2022-10-01T02:25:01.575Z,91.59
2022-10-01T02:26:10.697Z,91.85
2022-10-01T02:27:17.784Z,92.76
2022-10-01T02:28:23.283Z,93.11
2022-10-01T02:29:24.924Z,94.10
2022-10-01T02:30:28.475Z,93.44
2022-10-01T02:31:32.997Z,93.43
2022-10-01T02:32:37.869Z,93.23
2022-10-01T02:33:40.971Z,93.44
2022-10-01T02:34:45.172Z,94.35
2022-10-01T02:35:48.130Z,94.20
2022-10-01T02:36:52.439Z,94.36
2022-10-01T02:37:56.273Z,93.36
2022-10-01T02:39:00.237Z,93.38
2022-10-01T02:40:03.332Z,94.25
2022-10-01T02:41:08.608Z,93.16
2022-10-01T02:42:14.609Z,93.84
2022-10-01T02:43:18.891Z,93.94
2022-10-01T02:44:23.905Z,94.49
2022-10-01T02:45:27.410Z,94.54
2022-10-01T02:46:35.943Z,95.23
2022-10-01T02:47:41.292Z,95.10
2022-10-01T02:48:43.589Z,95.43
2022-10-01T02:49:45.322Z,96.03
2022-10-01T02:50:51.395Z,96.92
2022-10-01T02:51:59.430Z,96.89
2022-10-01T02:53:05.737Z,96.52
2022-10-01T02:54:13.196Z,96.54
2022-10-01T02:55:17.810Z,97.16
2022-10-01T02:56:19.293Z,97.43
2022-10-01T02:57:20.971Z,96.58
2022-10-01T02:58:22.512Z,96.68
2022-10-01T02:59:23.944Z,96.99
2022-10-01T03:00:25.608Z,96.90
2022-10-01T03:01:27.622Z,98.20
2022-10-01T03:02:31.935Z,97.89
2022-10-01T03:03:33.390Z,98.18
2022-10-01T03:04:34.874Z,98.70
2022-10-01T03:05:36.327Z,98.21
2022-10-01T03:06:37.785Z,98.70
2022-10-01T03:07:39.205Z,98.30
2022-10-01T03:08:40.608Z,98.21
2022-10-01T03:09:42.382Z,98.59
2022-10-01T03:10:46.731Z,99.10
2022-10-01T03:11:48.470Z,98.99
2022-10-01T03:12:49.946Z,98.75
2022-10-01T03:13:51.425Z,98.52
2022-10-01T03:14:52.934Z,98.57
2022-10-01T03:15:54.387Z,98.58
2022-10-01T03:16:55.859Z,98.68
2022-10-01T03:17:58.637Z,98.57
2022-10-01T03:19:00.052Z,98.10
2022-10-01T03:20:01.679Z,98.36
2022-10-01T03:21:03.118Z,98.43
2022-10-01T03:22:05.029Z,98.44
2022-10-01T03:23:06.445Z,98.44
2022-10-01T03:24:07.916Z,98.04
2022-10-01T03:25:09.507Z,98.07
2022-10-01T03:26:10.971Z,98.60
2022-10-01T03:27:12.403Z,98.40
2022-10-01T03:28:13.861Z,98.76
2022-10-01T03:29:15.331Z,98.73
2022-10-01T03:30:16.852Z,99.54
2022-10-01T03:31:18.390Z,99.23
2022-10-01T03:32:19.888Z,99.30
2022-10-01T03:33:22.627Z,99.09
2022-10-01T03:34:24.095Z,99.53
2022-10-01T03:35:25.566Z,99.41
2022-10-01T03:36:27.081Z,99.49
2022-10-01T03:37:28.536Z,99.07
2022-10-01T03:38:30.293Z,98.36
2022-10-01T03:39:31.852Z,97.92
2022-10-01T03:40:33.424Z,97.91
2022-10-01T03:41:35.192Z,98.05
2022-10-01T03:42:36.776Z,97.74
2022-10-01T03:43:38.231Z,97.54
2022-10-01T03:44:39.671Z,97.94
2022-10-01T03:45:41.127Z,98.53
2022-10-01T03:46:42.693Z,98.16
2022-10-01T03:47:44.148Z,99.18
2022-10-01T03:48:47.123Z,99.65
2022-10-01T03:49:48.548Z,99.99
2022-10-01T03:50:54.170Z,100.00
2022-10-01T03:51:55.776Z,99.88
2022-10-01T03:52:57.316Z,99.91
2022-10-01T03:53:59.213Z,99.98
2022-10-01T03:55:00.631Z,100.00
2022-10-01T03:56:02.064Z,100.00
2022-10-01T03:57:03.686Z,100.00
2022-10-01T03:58:05.126Z,100.00
2022-10-01T03:59:06.980Z,100.00
2022-10-01T04:00:10.035Z,100.00
2022-10-01T04:01:11.508Z,100.00
2022-10-01T04:02:13.089Z,100.00
2022-10-01T04:03:15.352Z,100.00
2022-10-01T04:04:18.165Z,100.00
2022-10-01T04:05:19.649Z,100.00
2022-10-01T04:06:21.086Z,100.00
2022-10-01T04:07:22.552Z,100.00
2022-10-01T04:08:24.606Z,100.00
2022-10-01T04:09:26.122Z,100.00
2022-10-01T04:10:27.597Z,100.00
2022-10-01T04:11:29.093Z,100.00
2022-10-01T04:12:30.507Z,100.00
2022-10-01T04:13:31.998Z,100.00
2022-10-01T04:14:33.453Z,100.00
2022-10-01T04:15:35.174Z,100.00
2022-10-01T04:16:36.703Z,100.00
2022-10-01T04:17:39.943Z,100.00
2022-10-01T04:18:44.224Z,100.00
2022-10-01T04:19:47.118Z,100.00
2022-10-01T04:20:48.638Z,100.00
2022-10-01T04:21:50.070Z,100.00
2022-10-01T04:22:51.535Z,100.00
2022-10-01T04:23:52.962Z,100.00
2022-10-01T04:24:54.398Z,100.00
2022-10-01T04:25:59.740Z,100.00
2022-10-01T04:27:01.219Z,100.00
2022-10-01T04:28:05.801Z,100.00
2022-10-01T04:29:07.341Z,100.00
2022-10-01T04:30:10.236Z,100.00
2022-10-01T04:31:11.830Z,100.00
2022-10-01T04:32:13.360Z,100.00
2022-10-01T04:33:16.351Z,100.00
2022-10-01T04:34:17.797Z,100.00
2022-10-01T04:35:20.923Z,100.00
2022-10-01T04:36:23.421Z,100.00
2022-10-01T04:37:24.895Z,100.00
2022-10-01T04:38:26.328Z,100.00
2022-10-01T04:39:27.777Z,100.00
2022-10-01T04:40:30.001Z,100.00
2022-10-01T04:41:32.196Z,100.00
2022-10-01T04:42:33.813Z,100.00
2022-10-01T04:43:35.284Z,100.00
2022-10-01T04:44:36.689Z,100.00
2022-10-01T04:45:38.636Z,100.00
2022-10-01T04:46:40.121Z,100.00
2022-10-01T04:47:47.428Z,100.00
2022-10-01T04:48:49.109Z,100.00
2022-10-01T04:49:50.551Z,100.00
2022-10-01T04:50:53.477Z,100.00
2022-10-01T04:51:54.939Z,100.00
2022-10-01T04:52:56.718Z,100.00
2022-10-01T04:53:58.147Z,100.00
2022-10-01T04:54:59.597Z,100.00
2022-10-01T04:56:01.460Z,100.00
2022-10-01T04:57:02.889Z,100.00
2022-10-01T04:58:04.371Z,100.00
2022-10-01T04:59:05.869Z,100.00
2022-10-01T05:00:09.064Z,100.00
2022-10-01T05:01:10.549Z,100.00
2022-10-01T05:02:12.021Z,100.00
2022-10-01T05:03:13.477Z,100.00
2022-10-01T05:04:14.977Z,100.00
2022-10-01T05:05:17.696Z,100.00
2022-10-01T05:06:20.497Z,100.00
2022-10-01T05:07:22.114Z,100.00
2022-10-01T05:08:23.608Z,100.00
2022-10-01T05:09:25.028Z,100.00
2022-10-01T05:10:26.601Z,99.58
2022-10-01T05:11:28.082Z,100.00
2022-10-01T05:12:29.505Z,100.00
2022-10-01T05:13:30.928Z,100.00
2022-10-01T05:14:32.362Z,100.00
2022-10-01T05:15:33.841Z,100.00
2022-10-01T05:16:35.321Z,100.00
2022-10-01T05:17:36.808Z,100.00
2022-10-01T05:18:38.253Z,100.00
2022-10-01T05:19:39.665Z,100.00
2022-10-01T05:20:41.173Z,100.00
2022-10-01T05:21:43.964Z,100.00
2022-10-01T05:22:45.963Z,100.00
2022-10-01T05:23:47.448Z,100.00
2022-10-01T05:24:48.900Z,100.00
2022-10-01T05:25:50.385Z,100.00
2022-10-01T05:26:52.154Z,100.00
2022-10-01T05:27:53.670Z,100.00
2022-10-01T05:28:55.104Z,100.00
2022-10-01T05:29:56.571Z,100.00
2022-10-01T05:30:59.030Z,100.00
2022-10-01T05:32:00.945Z,100.00
2022-10-01T05:33:04.761Z,100.00
2022-10-01T05:34:06.245Z,100.00
2022-10-01T05:35:08.367Z,100.00
2022-10-01T05:36:09.829Z,100.00
2022-10-01T05:37:12.645Z,100.00
2022-10-01T05:38:14.138Z,100.00
2022-10-01T05:39:15.544Z,100.00
2022-10-01T05:40:16.969Z,100.00
2022-10-01T05:41:18.425Z,100.00
2022-10-01T05:42:19.821Z,100.00
2022-10-01T05:43:21.344Z,100.00
2022-10-01T05:44:23.026Z,100.00
2022-10-01T05:45:26.428Z,100.00
2022-10-01T05:46:27.956Z,100.00
2022-10-01T05:47:29.437Z,100.00
2022-10-01T05:48:31.212Z,100.00
2022-10-01T05:49:33.158Z,100.00
2022-10-01T05:50:36.606Z,100.00
2022-10-01T05:51:38.075Z,100.00
2022-10-01T05:52:48.283Z,100.00
2022-10-01T05:53:50.574Z,100.00
2022-10-01T05:54:52.183Z,100.00
2022-10-01T05:55:53.593Z,100.00
2022-10-01T05:56:55.077Z,100.00
2022-10-01T05:57:57.870Z,100.00
2022-10-01T05:58:59.328Z,100.00
2022-10-01T06:00:01.134Z,100.00
2022-10-01T06:01:02.906Z,100.00
2022-10-01T06:02:04.494Z,100.00
2022-10-01T06:03:07.011Z,100.00
2022-10-01T06:04:09.880Z,100.00
2022-10-01T06:05:11.320Z,100.00
2022-10-01T06:06:12.782Z,100.00
2022-10-01T06:07:14.231Z,100.00
2022-10-01T06:08:17.136Z,100.00
2022-10-01T06:09:18.597Z,100.00
2022-10-01T06:10:20.869Z,100.00
2022-10-01T06:11:22.381Z,100.00
2022-10-01T06:12:23.814Z,100.00
2022-10-01T06:13:25.227Z,100.00
2022-10-01T06:14:26.723Z,100.00
2022-10-01T06:15:28.515Z,100.00
2022-10-01T06:16:29.973Z,100.00
2022-10-01T06:17:31.495Z,100.00
2022-10-01T06:18:33.017Z,100.00
2022-10-01T06:19:34.473Z,100.00
2022-10-01T06:20:36.725Z,100.00
2022-10-01T06:21:38.246Z,100.00
2022-10-01T06:22:40.817Z,100.00
2022-10-01T06:23:43.614Z,100.00
2022-10-01T06:24:45.019Z,100.00
2022-10-01T06:25:46.471Z,100.00
2022-10-01T06:26:47.994Z,100.00
2022-10-01T06:27:52.141Z,100.00
2022-10-01T06:28:53.670Z,100.00
2022-10-01T06:29:55.113Z,100.00
2022-10-01T06:30:56.573Z,100.00
2022-10-01T06:31:58.450Z,100.00
2022-10-01T06:33:00.329Z,100.00
2022-10-01T06:34:01.792Z,100.00
2022-10-01T06:35:03.571Z,100.00
2022-10-01T06:36:05.232Z,100.00
2022-10-01T06:37:06.704Z,100.00
2022-10-01T06:38:08.295Z,100.00
2022-10-01T06:39:11.064Z,100.00
2022-10-01T06:40:12.592Z,100.00
2022-10-01T06:41:14.032Z,100.00
2022-10-01T06:42:15.574Z,100.00
2022-10-01T06:43:16.992Z,100.00
2022-10-01T06:44:18.449Z,100.00
2022-10-01T06:45:20.028Z,100.00
2022-10-01T06:46:21.580Z,100.00
2022-10-01T06:47:23.061Z,100.00
2022-10-01T06:48:24.456Z,100.00
2022-10-01T06:49:25.895Z,100.00
2022-10-01T06:50:27.367Z,100.00
2022-10-01T06:51:28.871Z,100.00
2022-10-01T06:52:30.332Z,100.00
2022-10-01T06:53:31.841Z,100.00
2022-10-01T06:54:34.674Z,100.00
2022-10-01T06:55:37.404Z,100.00
2022-10-01T06:56:38.903Z,100.00
2022-10-01T06:57:40.361Z,100.00
2022-10-01T06:58:41.810Z,100.00
2022-10-01T06:59:43.258Z,100.00
2022-10-01T07:00:45.330Z,100.00
2022-10-01T07:01:51.013Z,100.00
2022-10-01T07:02:55.695Z,100.00
2022-10-01T07:03:57.133Z,100.00
2022-10-01T07:04:59.369Z,100.00
2022-10-01T07:06:02.702Z,100.00
2022-10-01T07:07:04.174Z,100.00
2022-10-01T07:08:06.465Z,100.00
2022-10-01T07:09:07.892Z,100.00
2022-10-01T07:10:11.972Z,100.00
2022-10-01T07:11:13.460Z,100.00
2022-10-01T07:12:14.945Z,100.00
2022-10-01T07:13:18.091Z,100.00
2022-10-01T07:14:19.630Z,100.00
2022-10-01T07:15:22.340Z,100.00
2022-10-01T07:16:24.033Z,100.00
2022-10-01T07:17:25.556Z,100.00
2022-10-01T07:18:27.017Z,100.00
2022-10-01T07:19:28.454Z,100.00
2022-10-01T07:20:29.945Z,100.00
2022-10-01T07:21:31.828Z,100.00
2022-10-01T07:22:33.551Z,100.00
2022-10-01T07:23:35.017Z,100.00
2022-10-01T07:24:36.468Z,100.00
2022-10-01T07:25:40.771Z,100.00
2022-10-01T07:26:42.244Z,100.00
2022-10-01T07:27:43.776Z,100.00
2022-10-01T07:28:45.301Z,100.00
2022-10-01T07:29:46.804Z,100.00
2022-10-01T07:30:58.337Z,100.00
2022-10-01T07:32:00.505Z,100.00
2022-10-01T07:33:02.000Z,100.00
2022-10-01T07:34:03.432Z,100.00
2022-10-01T07:35:05.855Z,100.00
2022-10-01T07:36:09.252Z,100.00
2022-10-01T07:37:10.879Z,100.00
2022-10-01T07:38:12.318Z,100.00
2022-10-01T07:39:13.761Z,100.00
2022-10-01T07:40:16.056Z,100.00
2022-10-01T07:41:18.843Z,100.00
2022-10-01T07:42:20.337Z,100.00
2022-10-01T07:43:21.878Z,100.00
2022-10-01T07:44:23.424Z,100.00
2022-10-01T07:45:25.670Z,100.00
2022-10-01T07:46:29.455Z,100.00
2022-10-01T07:47:32.943Z,100.00
2022-10-01T07:48:34.365Z,100.00
2022-10-01T07:49:35.834Z,100.00
2022-10-01T07:50:37.320Z,100.00
2022-10-01T07:51:38.893Z,100.00
2022-10-01T07:52:40.291Z,100.00
2022-10-01T07:53:41.719Z,100.00
2022-10-01T07:54:43.185Z,100.00
2022-10-01T07:55:44.743Z,100.00
2022-10-01T07:56:47.657Z,100.00
2022-10-01T07:57:52.191Z,100.00
2022-10-01T07:58:55.142Z,100.00
2022-10-01T07:59:56.611Z,100.00
2022-10-01T08:00:58.190Z,100.00
2022-10-01T08:01:59.718Z,100.00
2022-10-01T08:03:01.589Z,100.00
2022-10-01T08:04:04.846Z,100.00
2022-10-01T08:05:07.759Z,100.00
2022-10-01T08:06:11.849Z,100.00
2022-10-01T08:07:13.316Z,100.00
2022-10-01T08:08:14.738Z,100.00
2022-10-01T08:09:16.289Z,100.00
2022-10-01T08:10:19.246Z,100.00
2022-10-01T08:11:20.663Z,100.00
2022-10-01T08:12:23.504Z,100.00
2022-10-01T08:13:24.972Z,100.00
2022-10-01T08:14:26.524Z,100.00
2022-10-01T08:15:27.987Z,100.00
2022-10-01T08:16:29.531Z,100.00
2022-10-01T08:17:30.988Z,100.00
2022-10-01T08:18:33.034Z,100.00
2022-10-01T08:19:34.602Z,100.00
2022-10-01T08:20:36.067Z,100.00
2022-10-01T08:21:37.587Z,100.00
2022-10-01T08:22:42.107Z,100.00
2022-10-01T08:23:43.949Z,100.00
2022-10-01T08:24:45.382Z,100.00
2022-10-01T08:25:47.568Z,100.00
2022-10-01T08:26:52.491Z,100.00
2022-10-01T08:27:55.356Z,100.00
2022-10-01T08:28:57.033Z,100.00
2022-10-01T08:29:58.473Z,100.00
2022-10-01T08:31:04.924Z,100.00
2022-10-01T08:32:06.387Z,99.86
2022-10-01T08:33:10.443Z,100.00
2022-10-01T08:34:11.929Z,99.58
2022-10-01T08:35:13.492Z,100.00
2022-10-01T08:36:14.895Z,100.00
2022-10-01T08:37:16.311Z,100.00
2022-10-01T08:38:17.775Z,99.72
2022-10-01T08:39:19.248Z,99.52
2022-10-01T08:40:21.111Z,99.42
2022-10-01T08:41:48.197Z,99.18
2022-10-01T08:42:57.335Z,99.41
2022-10-01T08:44:01.872Z,99.38
2022-10-01T08:45:10.169Z,99.57
2022-10-01T08:46:16.081Z,99.86
2022-10-01T08:47:30.984Z,99.69
2022-10-01T08:48:47.541Z,99.06
2022-10-01T08:49:53.945Z,99.30
2022-10-01T08:50:59.252Z,99.13
2022-10-01T08:52:06.010Z,99.04
2022-10-01T08:53:14.394Z,99.11
2022-10-01T08:54:28.852Z,99.26
2022-10-01T08:55:32.991Z,99.82
2022-10-01T08:56:36.997Z,99.72
2022-10-01T08:57:43.033Z,99.31
2022-10-01T08:58:49.900Z,99.19
2022-10-01T08:59:55.221Z,98.87
2022-10-01T09:00:56.757Z,98.53
2022-10-01T09:01:58.616Z,98.56
2022-10-01T09:03:05.005Z,98.26
2022-10-01T09:04:06.621Z,98.59
2022-10-01T09:05:20.274Z,98.87
2022-10-01T09:06:23.945Z,99.23
2022-10-01T09:07:41.758Z,99.48
2022-10-01T09:08:50.983Z,99.54
2022-10-01T09:10:00.456Z,98.43
2022-10-01T09:11:06.985Z,97.75
2022-10-01T09:12:22.170Z,98.22
2022-10-01T09:13:55.691Z,98.28
2022-10-01T09:15:15.292Z,98.85
2022-10-01T09:16:23.798Z,99.04
2022-10-01T09:17:41.974Z,98.66
2022-10-01T09:18:53.160Z,98.17
2022-10-01T09:20:11.661Z,98.22
2022-10-01T09:21:17.837Z,98.58
2022-10-01T09:22:27.356Z,98.36
2022-10-01T09:23:30.584Z,98.44
2022-10-01T09:24:42.297Z,98.41
2022-10-01T09:25:45.760Z,98.05
2022-10-01T09:26:48.488Z,97.63
2022-10-01T09:27:51.146Z,97.62
2022-10-01T09:28:55.643Z,97.77
2022-10-01T09:30:00.992Z,97.43
2022-10-01T09:31:12.916Z,97.95
2022-10-01T09:32:17.951Z,97.70
2022-10-01T09:33:21.850Z,97.19
2022-10-01T09:34:30.002Z,98.00
2022-10-01T09:35:38.697Z,97.66
2022-10-01T09:36:51.848Z,97.34
2022-10-01T09:37:57.144Z,96.75
2022-10-01T09:39:09.711Z,96.52
2022-10-01T09:40:17.365Z,96.30
2022-10-01T09:41:19.600Z,96.00
2022-10-01T09:42:26.247Z,95.70
2022-10-01T09:43:29.957Z,95.88
2022-10-01T09:44:33.777Z,94.98
2022-10-01T09:45:37.168Z,96.14
2022-10-01T09:46:38.656Z,96.01
2022-10-01T09:47:41.316Z,95.45
2022-10-01T09:48:49.169Z,95.39
2022-10-01T09:49:50.616Z,95.52
2022-10-01T09:50:56.385Z,95.14
2022-10-01T09:52:01.029Z,95.54
2022-10-01T09:53:02.752Z,95.42
2022-10-01T09:54:12.337Z,95.34
2022-10-01T09:55:25.384Z,95.47
2022-10-01T09:56:30.522Z,95.34
2022-10-01T09:57:34.394Z,95.18
2022-10-01T09:58:38.961Z,94.82
2022-10-01T09:59:47.145Z,94.94
2022-10-01T10:00:48.662Z,95.16
2022-10-01T10:01:53.448Z,95.13
2022-10-01T10:02:55.958Z,94.87
2022-10-01T10:03:57.822Z,94.68
2022-10-01T10:05:00.373Z,94.63
2022-10-01T10:06:01.884Z,94.79
2022-10-01T10:07:05.467Z,94.20
2022-10-01T10:08:12.918Z,94.05
2022-10-01T10:09:17.363Z,94.11
2022-10-01T10:10:25.728Z,94.01
2022-10-01T10:11:29.928Z,93.67
2022-10-01T10:12:31.344Z,93.68
2022-10-01T10:13:34.616Z,94.02
2022-10-01T10:14:38.899Z,93.80
2022-10-01T10:15:49.949Z,93.26
2022-10-01T10:16:51.476Z,93.29
2022-10-01T10:17:53.998Z,93.80
2022-10-01T10:18:58.345Z,94.11
2022-10-01T10:19:59.957Z,93.69
2022-10-01T10:21:04.700Z,93.70
2022-10-01T10:22:22.021Z,93.75
2022-10-01T10:23:24.952Z,93.47
2022-10-01T10:24:31.621Z,93.33
2022-10-01T10:25:33.088Z,93.71
2022-10-01T10:26:37.477Z,93.74
2022-10-01T10:27:50.810Z,92.84
2022-10-01T10:28:52.292Z,93.31
2022-10-01T10:30:05.973Z,93.42
2022-10-01T10:31:14.165Z,93.79
2022-10-01T10:32:26.499Z,93.14
2022-10-01T10:33:28.009Z,92.99
2022-10-01T10:34:33.413Z,93.09
2022-10-01T10:35:35.224Z,93.61
2022-10-01T10:36:37.461Z,93.93
2022-10-01T10:37:46.621Z,93.62
2022-10-01T10:38:50.808Z,93.17
2022-10-01T10:39:53.489Z,93.11
2022-10-01T10:40:55.186Z,93.37
2022-10-01T10:41:57.922Z,93.02
2022-10-01T10:42:59.863Z,93.31
2022-10-01T10:44:04.789Z,92.88
2022-10-01T10:45:15.974Z,93.94
2022-10-01T10:46:25.738Z,93.28
2022-10-01T10:47:27.581Z,93.43
2022-10-01T10:48:32.234Z,93.43
2022-10-01T10:49:45.128Z,92.95
2022-10-01T10:50:47.029Z,93.09
2022-10-01T10:51:51.005Z,92.63
2022-10-01T10:52:52.480Z,92.26
2022-10-01T10:53:53.943Z,92.44
2022-10-01T10:54:57.316Z,92.77
2022-10-01T10:56:00.134Z,92.54
2022-10-01T10:57:03.445Z,92.50
2022-10-01T10:58:14.031Z,92.77
2022-10-01T10:59:15.464Z,92.21
2022-10-01T11:00:19.638Z,92.66
2022-10-01T11:01:28.901Z,92.28
2022-10-01T11:02:32.430Z,91.78
2022-10-01T11:03:37.527Z,92.19
2022-10-01T11:04:41.495Z,92.21
2022-10-01T11:05:43.504Z,92.25
2022-10-01T11:06:54.932Z,92.20
2022-10-01T11:07:58.115Z,92.16
2022-10-01T11:09:02.307Z,92.31
2022-10-01T11:10:20.092Z,92.83
2022-10-01T11:11:36.686Z,92.35
2022-10-01T11:12:54.570Z,92.30
2022-10-01T11:14:09.250Z,92.04
2022-10-01T11:15:30.131Z,92.25
2022-10-01T11:16:47.156Z,92.09
2022-10-01T11:18:13.566Z,92.45
2022-10-01T11:19:30.934Z,92.41
2022-10-01T11:20:38.948Z,91.92
2022-10-01T11:21:56.046Z,91.92
2022-10-01T11:23:11.631Z,92.31
2022-10-01T11:24:40.221Z,93.08
2022-10-01T11:25:50.948Z,92.96
2022-10-01T11:26:58.434Z,93.11
2022-10-01T11:28:13.690Z,92.24
2022-10-01T11:29:26.084Z,92.80
2022-10-01T11:30:37.490Z,92.61
2022-10-01T11:31:47.037Z,93.11
2022-10-01T11:33:00.618Z,92.65
2022-10-01T11:34:24.218Z,92.63
2022-10-01T11:35:40.267Z,92.53
2022-10-01T11:36:54.641Z,92.03
2022-10-01T11:38:07.486Z,92.90
2022-10-01T11:39:13.535Z,92.75
2022-10-01T11:40:22.325Z,92.25
2022-10-01T11:41:34.720Z,92.45
2022-10-01T11:42:37.294Z,92.94
2022-10-01T11:43:43.389Z,93.05
2022-10-01T11:44:49.215Z,92.97
2022-10-01T11:45:55.929Z,92.59
2022-10-01T11:47:03.524Z,92.87
2022-10-01T11:48:11.100Z,92.73
2022-10-01T11:49:26.156Z,92.56
2022-10-01T11:50:31.278Z,92.37
2022-10-01T11:51:40.018Z,92.62
2022-10-01T11:52:47.905Z,92.58
2022-10-01T11:53:53.323Z,92.69
2022-10-01T11:55:02.499Z,92.44
2022-10-01T11:56:10.699Z,92.72
2022-10-01T11:57:15.629Z,92.65
2022-10-01T11:58:28.238Z,93.16
2022-10-01T11:59:37.387Z,92.82
2022-10-01T12:00:41.396Z,92.75
2022-10-01T12:01:49.553Z,92.34
2022-10-01T12:02:58.560Z,92.61
2022-10-01T12:04:27.719Z,92.98
2022-10-01T12:05:31.826Z,92.93
2022-10-01T12:06:37.803Z,93.50
2022-10-01T12:07:47.378Z,94.38
2022-10-01T12:08:53.976Z,94.04
2022-10-01T12:10:03.273Z,93.57
2022-10-01T12:11:14.560Z,92.91
2022-10-01T12:12:21.064Z,92.98
2022-10-01T12:13:27.911Z,93.03
2022-10-01T12:14:37.692Z,93.13
2022-10-01T12:15:47.581Z,93.21
2022-10-01T12:16:54.641Z,92.93
2022-10-01T12:18:03.253Z,92.97
2022-10-01T12:19:12.056Z,93.19
2022-10-01T12:20:21.590Z,92.80
2022-10-01T12:21:27.565Z,92.83
2022-10-01T12:22:31.411Z,93.03
2022-10-01T12:23:41.426Z,93.38
2022-10-01T12:24:44.460Z,92.84
2022-10-01T12:25:52.344Z,93.19
2022-10-01T12:27:02.424Z,93.37
2022-10-01T12:28:09.938Z,94.11
2022-10-01T12:29:17.813Z,93.95
2022-10-01T12:30:21.115Z,93.67
2022-10-01T12:31:28.573Z,93.50
2022-10-01T12:32:40.056Z,93.58
2022-10-01T12:33:51.583Z,93.50
2022-10-01T12:35:05.816Z,93.89
2022-10-01T12:36:17.920Z,93.88
2022-10-01T12:37:32.578Z,94.21
2022-10-01T12:39:02.233Z,94.25
2022-10-01T12:40:16.110Z,94.00
2022-10-01T12:41:31.392Z,93.19
2022-10-01T12:43:03.215Z,93.38
2022-10-01T12:44:19.370Z,93.09
2022-10-01T12:45:30.023Z,92.67
2022-10-01T12:46:39.214Z,93.49
2022-10-01T12:47:52.029Z,93.24
2022-10-01T12:49:03.808Z,92.90
2022-10-01T12:50:16.232Z,93.03
2022-10-01T12:51:36.923Z,93.38
2022-10-01T12:52:46.065Z,92.83
2022-10-01T12:54:00.145Z,92.64
2022-10-01T12:55:28.401Z,92.72
2022-10-01T12:56:34.123Z,92.78
2022-10-01T12:57:46.129Z,92.34
2022-10-01T12:59:03.500Z,92.42
2022-10-01T13:00:11.729Z,92.31
2022-10-01T13:01:28.180Z,92.67
2022-10-01T13:02:56.355Z,92.24
2022-10-01T13:04:31.972Z,92.23
2022-10-01T13:05:40.354Z,92.82
2022-10-01T13:06:59.213Z,92.54
2022-10-01T13:08:23.746Z,92.59
2022-10-01T13:09:37.354Z,92.01
2022-10-01T13:10:53.989Z,91.52
2022-10-01T13:12:07.115Z,91.90
2022-10-01T13:13:14.808Z,92.07
2022-10-01T13:14:17.339Z,92.06
2022-10-01T13:15:22.471Z,91.95
2022-10-01T13:16:31.002Z,91.49
2022-10-01T13:17:39.518Z,91.59
2022-10-01T13:18:53.168Z,91.63
2022-10-01T13:20:03.412Z,91.24
2022-10-01T13:21:12.390Z,91.32
2022-10-01T13:22:21.365Z,90.78
2022-10-01T13:23:29.989Z,90.19
2022-10-01T13:24:37.515Z,90.28
2022-10-01T13:25:45.064Z,89.79
2022-10-01T13:26:52.300Z,89.86
2022-10-01T13:27:59.393Z,89.97
2022-10-01T13:29:14.158Z,90.65
2022-10-01T13:30:18.387Z,90.17
2022-10-01T13:31:19.926Z,90.19
2022-10-01T13:32:31.399Z,90.24
2022-10-01T13:33:33.311Z,90.28
2022-10-01T13:34:38.432Z,89.97
2022-10-01T13:35:41.187Z,89.86
2022-10-01T13:36:42.644Z,90.03
2022-10-01T13:37:44.093Z,89.94
2022-10-01T13:38:45.913Z,90.15
2022-10-01T13:39:48.030Z,90.04
2022-10-01T13:40:57.245Z,89.88
2022-10-01T13:41:58.765Z,89.99
2022-10-01T13:43:02.959Z,89.92
2022-10-01T13:44:19.393Z,89.19
2022-10-01T13:45:25.804Z,89.48
2022-10-01T13:46:31.608Z,89.30
2022-10-01T13:47:36.440Z,89.58
2022-10-01T13:48:46.432Z,89.75